Time;durP1;ratioP1;P1;durP2;ratioP2;P2;SDS_P1;SDS_P2;PMS_P1;PMS_P2;Temp;Humidity;BMP_temperature;BMP_pressure;BME280_temperature;BME280_humidity;BME280_pressure;Samples;Min_cycle;Max_cycle;Signal;HPM_P1;HPM_P2
2023/09/16 00:00:21;;;;;;;4.32;1.95;;;29.50;38.20;;;;;;5058155;28;20089;-69
2023/09/16 00:02:48;;;;;;;4.82;2.13;;;29.40;38.50;;;;;;5057407;28;20025;-70
2023/09/16 00:05:17;;;;;;;7.68;2.20;;;28.80;38.80;;;;;;5061894;28;20052;-69
2023/09/16 00:07:44;;;;;;;4.35;2.00;;;29.20;39.20;;;;;;5060458;28;20366;-70
2023/09/16 00:10:12;;;;;;;5.60;2.10;;;29.60;38.90;;;;;;5059554;28;20100;-70
2023/09/16 00:12:39;;;;;;;4.60;1.83;;;29.80;38.60;;;;;;5058517;28;20434;-69
2023/09/16 00:15:07;;;;;;;4.53;2.22;;;29.90;37.20;;;;;;5058278;28;20425;-69
2023/09/16 00:17:34;;;;;;;7.13;1.77;;;30.70;37.10;;;;;;5065170;28;20037;-69
2023/09/16 00:20:15;;;;;;;6.55;1.67;;;31.00;36.40;;;;;;5059273;28;20107;-70
2023/09/16 00:22:43;;;;;;;4.95;1.80;;;30.40;37.00;;;;;;5055517;28;20078;-70
2023/09/16 00:25:11;;;;;;;5.45;2.13;;;30.30;36.90;;;;;;5060170;28;20028;-70
2023/09/16 00:27:41;;;;;;;2.65;1.80;;;30.40;37.00;;;;;;5063481;28;20108;-70
2023/09/16 00:30:09;;;;;;;5.65;2.13;;;30.90;37.80;;;;;;5057906;28;20116;-69
2023/09/16 00:32:36;;;;;;;5.18;1.90;;;31.50;36.20;;;;;;5056329;28;20032;-69
2023/09/16 00:35:06;;;;;;;12.18;2.47;;;31.10;35.90;;;;;;5058138;28;20489;-69
2023/09/16 00:37:34;;;;;;;5.45;1.90;;;31.20;36.90;;;;;;5066153;28;20036;-68
2023/09/16 00:40:01;;;;;;;9.23;1.85;;;31.80;35.80;;;;;;5057045;28;20112;-70
2023/09/16 00:42:28;;;;;;;6.05;1.95;;;31.70;35.60;;;;;;5053981;28;20071;-69
2023/09/16 00:44:56;;;;;;;8.10;2.40;;;31.60;35.10;;;;;;5052081;28;20434;-69
2023/09/16 00:47:23;;;;;;;3.28;1.85;;;31.70;35.70;;;;;;5051738;28;20025;-70
2023/09/16 00:49:50;;;;;;;3.30;1.63;;;31.80;35.20;;;;;;5058123;28;20074;-69
2023/09/16 00:52:18;;;;;;;5.82;1.58;;;32.10;35.40;;;;;;5059701;28;20424;-69
2023/09/16 00:54:47;;;;;;;2.90;1.50;;;32.20;35.00;;;;;;5062547;28;20021;-69
2023/09/16 00:57:15;;;;;;;3.80;1.75;;;32.40;35.80;;;;;;5055141;28;20453;-69
2023/09/16 00:59:43;;;;;;;2.65;1.48;;;32.40;34.50;;;;;;5049674;28;20396;-70
2023/09/16 01:02:10;;;;;;;4.28;1.67;;;32.60;34.50;;;;;;5051076;28;20029;-70
2023/09/16 01:04:42;;;;;;;5.20;1.58;;;32.60;34.20;;;;;;5048868;28;20390;-70
2023/09/16 01:07:10;;;;;;;3.92;1.58;;;32.80;33.20;;;;;;5049332;28;20025;-69
2023/09/16 01:09:38;;;;;;;3.50;1.85;;;32.80;33.50;;;;;;5059154;28;20021;-70
2023/09/16 01:12:07;;;;;;;5.07;1.92;;;32.90;33.30;;;;;;5059009;28;20029;-69
2023/09/16 01:14:35;;;;;;;3.70;1.70;;;33.00;32.80;;;;;;5060149;28;20024;-69
2023/09/16 01:17:24;;;;;;;3.45;1.42;;;33.30;33.60;;;;;;5055400;28;20028;-69
2023/09/16 01:20:01;;;;;;;3.05;1.65;;;33.20;32.40;;;;;;5064066;28;20087;-68
2023/09/16 01:22:30;;;;;;;3.08;1.42;;;33.30;32.40;;;;;;5050519;28;20592;-68
2023/09/16 01:25:07;;;;;;;3.97;1.52;;;33.60;32.10;;;;;;5056182;28;20028;-70
2023/09/16 01:27:36;;;;;;;3.80;1.83;;;33.60;31.30;;;;;;5060186;28;20428;-70
2023/09/16 01:30:05;;;;;;;3.80;1.58;;;33.50;31.00;;;;;;5058885;28;20021;-69
2023/09/16 01:32:47;;;;;;;2.13;1.42;;;33.70;30.80;;;;;;5054077;28;20025;-70
2023/09/16 01:35:17;;;;;;;2.88;1.50;;;33.40;31.90;;;;;;5056237;28;20104;-68
2023/09/16 01:37:49;;;;;;;7.80;1.77;;;33.60;31.50;;;;;;5055965;28;20859;-68
2023/09/16 01:40:18;;;;;;;4.95;1.70;;;33.80;30.70;;;;;;5052686;28;20470;-69
2023/09/16 01:42:46;;;;;;;3.65;1.48;;;34.10;31.80;;;;;;5063211;28;20021;-69
2023/09/16 01:45:14;;;;;;;3.10;1.50;;;34.00;31.10;;;;;;5054609;28;20541;-70
2023/09/16 01:47:41;;;;;;;4.63;1.88;;;34.40;30.70;;;;;;5058829;28;20100;-69
2023/09/16 01:50:09;;;;;;;3.85;1.60;;;34.30;30.00;;;;;;5055758;28;20059;-71
2023/09/16 01:52:36;;;;;;;2.58;1.33;;;34.60;31.00;;;;;;5060620;28;20046;-70
2023/09/16 01:55:04;;;;;;;4.10;1.50;;;34.60;30.50;;;;;;5057754;28;20056;-69
2023/09/16 01:57:31;;;;;;;3.10;1.63;;;34.80;30.10;;;;;;5057699;28;20031;-68
2023/09/16 01:59:58;;;;;;;3.55;1.33;;;34.80;30.70;;;;;;5055274;28;20032;-69
2023/09/16 02:02:26;;;;;;;5.13;1.50;;;35.20;30.40;;;;;;5057917;28;20029;-69
2023/09/16 02:04:53;;;;;;;3.88;1.40;;;35.10;30.00;;;;;;5054528;28;20067;-68
2023/09/16 02:07:20;;;;;;;5.15;1.40;;;34.80;30.00;;;;;;5057193;28;20021;-69
2023/09/16 02:09:48;;;;;;;5.95;1.65;;;34.70;29.80;;;;;;5055892;28;20355;-69
2023/09/16 02:12:15;;;;;;;2.35;1.40;;;34.90;30.20;;;;;;5056276;28;20099;-69
2023/09/16 02:14:43;;;;;;;5.10;1.70;;;35.10;30.70;;;;;;5055395;28;20024;-69
2023/09/16 02:17:10;;;;;;;7.43;1.70;;;35.20;30.50;;;;;;5060595;28;20104;-70
2023/09/16 02:19:38;;;;;;;3.60;1.88;;;35.00;30.80;;;;;;5055680;28;20041;-70
2023/09/16 02:22:05;;;;;;;4.55;2.00;;;35.60;30.50;;;;;;5054613;28;20028;-69
2023/09/16 02:24:33;;;;;;;4.57;1.70;;;35.60;30.70;;;;;;5055536;28;20082;-70
2023/09/16 02:27:00;;;;;;;3.88;1.40;;;35.90;29.70;;;;;;5055958;28;20032;-68
2023/09/16 02:29:28;;;;;;;6.97;1.40;;;36.00;30.00;;;;;;5056784;28;20081;-69
2023/09/16 02:31:56;;;;;;;5.43;1.88;;;36.00;28.70;;;;;;5055750;28;20028;-68
2023/09/16 02:34:23;;;;;;;3.55;1.75;;;36.10;28.70;;;;;;5057412;28;20032;-69
2023/09/16 02:36:50;;;;;;;2.33;1.38;;;35.70;29.10;;;;;;5065511;28;20032;-69
2023/09/16 02:39:18;;;;;;;2.13;1.30;;;35.40;28.20;;;;;;5061416;28;20051;-69
2023/09/16 02:41:46;;;;;;;4.68;1.63;;;35.60;28.60;;;;;;5060498;28;20035;-69
2023/09/16 02:44:13;;;;;;;3.25;1.58;;;35.30;26.90;;;;;;5055385;28;20037;-69
2023/09/16 02:46:40;;;;;;;4.10;1.60;;;35.40;27.70;;;;;;5055684;28;20060;-69
2023/09/16 02:49:08;;;;;;;8.68;1.60;;;35.30;27.30;;;;;;5060086;28;20021;-69
2023/09/16 02:51:35;;;;;;;3.97;1.70;;;35.30;27.70;;;;;;5057025;28;20464;-69
2023/09/16 02:54:04;;;;;;;4.15;1.80;;;35.60;26.80;;;;;;5069288;28;20027;-69
2023/09/16 02:56:32;;;;;;;4.47;1.73;;;35.60;27.40;;;;;;5062583;28;20112;-69
2023/09/16 02:59:00;;;;;;;8.50;1.60;;;35.50;27.80;;;;;;5053446;28;20041;-69
2023/09/16 03:01:28;;;;;;;2.58;1.67;;;35.90;27.70;;;;;;5053404;28;20047;-68
2023/09/16 03:03:55;;;;;;;3.33;1.50;;;35.90;27.20;;;;;;5049923;28;20028;-69
2023/09/16 03:06:23;;;;;;;2.22;1.42;;;36.30;26.10;;;;;;5050718;28;20087;-70
2023/09/16 03:08:51;;;;;;;3.17;1.20;;;36.30;25.50;;;;;;5057629;28;20029;-70
2023/09/16 03:11:18;;;;;;;2.53;1.30;;;36.30;26.00;;;;;;5054184;28;20032;-69
2023/09/16 03:13:45;;;;;;;4.88;1.33;;;36.50;25.80;;;;;;5055825;28;20053;-70
2023/09/16 03:16:20;;;;;;;3.13;1.52;;;36.50;26.10;;;;;;5055760;28;20454;-69
2023/09/16 03:18:49;;;;;;;4.32;1.50;;;36.60;25.80;;;;;;5060001;28;20486;-69
2023/09/16 03:21:18;;;;;;;4.93;1.42;;;36.50;25.50;;;;;;5052900;28;20035;-70
2023/09/16 03:23:46;;;;;;;2.83;1.40;;;35.80;25.80;;;;;;5064710;28;20446;-70
2023/09/16 03:26:15;;;;;;;4.07;1.30;;;35.50;26.60;;;;;;5063026;28;20025;-70
2023/09/16 03:28:47;;;;;;;1.70;1.33;;;35.50;25.80;;;;;;5061391;28;20033;-70
2023/09/16 03:31:15;;;;;;;2.38;1.20;;;35.30;25.90;;;;;;5063387;28;20492;-69
2023/09/16 03:33:43;;;;;;;4.90;1.30;;;34.90;25.80;;;;;;5061432;28;20051;-70
2023/09/16 03:36:10;;;;;;;5.75;1.50;;;34.80;25.70;;;;;;5058553;28;20032;-70
2023/09/16 03:38:46;;;;;;;3.00;1.48;;;34.80;25.60;;;;;;5056768;28;20776;-70
2023/09/16 03:41:15;;;;;;;8.32;1.50;;;34.80;25.30;;;;;;5056484;28;20025;-71
2023/09/16 03:43:43;;;;;;;4.63;1.58;;;34.80;25.80;;;;;;5056992;28;20507;-69
2023/09/16 03:46:10;;;;;;;5.97;1.65;;;35.00;25.40;;;;;;5059364;28;20021;-69
2023/09/16 03:48:37;;;;;;;4.43;1.95;;;34.70;24.90;;;;;;5061156;28;20533;-68
2023/09/16 03:51:06;;;;;;;3.58;1.88;;;34.50;25.10;;;;;;5059895;28;20102;-69
2023/09/16 03:53:36;;;;;;;2.08;1.50;;;34.50;24.70;;;;;;5059053;28;20033;-70
2023/09/16 03:56:10;;;;;;;3.35;1.45;;;34.50;25.00;;;;;;5055967;28;20028;-70
2023/09/16 03:58:38;;;;;;;5.78;1.60;;;34.60;25.00;;;;;;5063557;28;20417;-70
2023/09/16 04:01:05;;;;;;;5.28;1.45;;;34.50;25.00;;;;;;5059134;28;20112;-70
2023/09/16 04:03:34;;;;;;;4.90;1.70;;;34.30;25.90;;;;;;5057688;28;20037;-72
2023/09/16 04:06:03;;;;;;;9.48;1.58;;;34.80;26.40;;;;;;5055026;28;20021;-69
2023/09/16 04:08:31;;;;;;;3.85;1.20;;;35.10;26.10;;;;;;5062314;28;20032;-71
2023/09/16 04:10:58;;;;;;;2.95;1.65;;;35.30;25.80;;;;;;5056185;28;20036;-70
2023/09/16 04:13:26;;;;;;;4.28;1.50;;;35.20;25.50;;;;;;5052859;28;20359;-69
2023/09/16 04:15:54;;;;;;;1.70;1.20;;;35.20;25.80;;;;;;5052974;28;20223;-70
2023/09/16 04:18:22;;;;;;;2.15;1.42;;;35.00;25.80;;;;;;5052435;28;20037;-70
2023/09/16 04:20:55;;;;;;;2.58;1.50;;;34.80;26.20;;;;;;5051233;28;20036;-70
2023/09/16 04:23:25;;;;;;;4.32;1.55;;;34.90;26.10;;;;;;5048079;28;20054;-70
2023/09/16 04:25:57;;;;;;;3.08;1.67;;;35.10;26.40;;;;;;5049814;28;20070;-70
2023/09/16 04:28:24;;;;;;;2.45;1.70;;;35.00;26.60;;;;;;5053321;28;20025;-69
2023/09/16 04:30:54;;;;;;;5.13;1.50;;;35.20;27.30;;;;;;5050444;28;20032;-70
2023/09/16 04:33:22;;;;;;;2.47;1.33;;;35.10;27.10;;;;;;5060956;28;20040;-70
2023/09/16 04:35:51;;;;;;;3.85;1.35;;;35.00;27.00;;;;;;5054868;28;20021;-70
2023/09/16 04:38:19;;;;;;;4.53;1.30;;;34.80;27.30;;;;;;5060431;28;20043;-69
2023/09/16 04:40:47;;;;;;;1.95;1.40;;;34.70;27.30;;;;;;5054883;28;20103;-70
2023/09/16 04:43:15;;;;;;;4.15;1.45;;;34.80;27.00;;;;;;5056977;28;20760;-69
2023/09/16 04:45:48;;;;;;;2.40;1.50;;;34.80;27.00;;;;;;5059276;28;20068;-70
2023/09/16 04:48:17;;;;;;;2.47;1.45;;;35.00;26.70;;;;;;5055545;28;20025;-70
2023/09/16 04:50:48;;;;;;;2.85;1.60;;;34.90;26.50;;;;;;5058576;28;20038;-69
2023/09/16 04:53:16;;;;;;;4.35;1.70;;;34.90;27.20;;;;;;5057376;28;20039;-70
2023/09/16 04:55:43;;;;;;;7.28;2.17;;;35.00;26.50;;;;;;5056550;28;20016;-70
2023/09/16 04:58:10;;;;;;;3.20;1.60;;;35.10;26.90;;;;;;5058939;28;20043;-69
2023/09/16 05:00:38;;;;;;;1.85;1.25;;;35.00;26.70;;;;;;5056778;28;20039;-69
2023/09/16 05:03:06;;;;;;;2.05;1.50;;;35.00;26.70;;;;;;5056837;28;20029;-70
2023/09/16 05:05:35;;;;;;;2.42;1.40;;;34.90;27.10;;;;;;5058445;28;20120;-69
2023/09/16 05:08:02;;;;;;;4.47;1.50;;;34.80;27.00;;;;;;5055065;28;20021;-69
2023/09/16 05:10:29;;;;;;;2.50;1.60;;;34.80;27.20;;;;;;5062372;28;20452;-70
2023/09/16 05:12:57;;;;;;;3.13;1.48;;;34.70;27.00;;;;;;5057775;28;20061;-70
2023/09/16 05:15:24;;;;;;;4.35;1.60;;;34.80;27.40;;;;;;5060240;28;20094;-69
2023/09/16 05:17:52;;;;;;;4.05;1.63;;;34.80;27.10;;;;;;5060947;28;20439;-69
2023/09/16 05:20:19;;;;;;;3.67;1.65;;;34.50;27.00;;;;;;5058133;28;20070;-70
2023/09/16 05:22:50;;;;;;;3.45;1.70;;;34.40;26.80;;;;;;5060824;28;20495;-69
2023/09/16 05:25:17;;;;;;;4.18;1.67;;;34.30;26.60;;;;;;5058588;28;20037;-69
2023/09/16 05:27:46;;;;;;;3.25;1.70;;;34.10;26.80;;;;;;5058064;28;20040;-69
2023/09/16 05:30:14;;;;;;;4.07;1.88;;;34.10;27.00;;;;;;5056275;28;20040;-69
2023/09/16 05:32:42;;;;;;;2.50;1.50;;;34.00;26.50;;;;;;5054318;28;20028;-69
2023/09/16 05:35:09;;;;;;;5.22;1.70;;;34.00;27.30;;;;;;5055940;28;20562;-69
2023/09/16 05:37:36;;;;;;;4.07;1.77;;;34.00;27.10;;;;;;5056266;28;20025;-70
2023/09/16 05:40:04;;;;;;;4.30;1.60;;;34.00;27.20;;;;;;5053401;28;20032;-70
2023/09/16 05:42:31;;;;;;;2.50;1.48;;;34.00;27.10;;;;;;5059256;28;20028;-70
2023/09/16 05:45:01;;;;;;;1.95;1.60;;;34.00;27.10;;;;;;5049051;28;20033;-70
2023/09/16 05:47:32;;;;;;;3.55;1.58;;;33.90;27.10;;;;;;5066765;28;20409;-70
2023/09/16 05:49:59;;;;;;;4.05;1.50;;;34.00;26.80;;;;;;5051477;28;20033;-69
2023/09/16 05:52:26;;;;;;;2.55;1.20;;;34.10;26.80;;;;;;5053582;28;20473;-69
2023/09/16 05:54:54;;;;;;;4.40;1.50;;;34.00;26.90;;;;;;5054893;28;20064;-71
2023/09/16 05:57:21;;;;;;;6.07;1.90;;;33.90;26.50;;;;;;5052907;28;20638;-70
2023/09/16 05:59:48;;;;;;;3.65;1.80;;;33.70;27.00;;;;;;5051214;28;20068;-71
2023/09/16 06:02:16;;;;;;;5.18;2.03;;;33.60;26.80;;;;;;5052651;28;20033;-68
2023/09/16 06:04:43;;;;;;;5.30;1.88;;;33.30;26.60;;;;;;5052920;28;20029;-69
2023/09/16 06:07:10;;;;;;;4.50;1.85;;;33.10;26.60;;;;;;5053816;28;20046;-70
2023/09/16 06:09:38;;;;;;;2.67;1.67;;;33.00;26.90;;;;;;5054206;28;20036;-70
2023/09/16 06:12:05;;;;;;;4.10;1.75;;;33.00;27.40;;;;;;5050100;28;20024;-69
2023/09/16 06:14:33;;;;;;;2.35;1.25;;;33.00;26.90;;;;;;5054102;28;20032;-70
2023/09/16 06:17:00;;;;;;;3.90;1.70;;;32.90;26.90;;;;;;5054411;28;20021;-70
2023/09/16 06:19:29;;;;;;;5.53;1.70;;;32.80;26.90;;;;;;5054601;28;20045;-70
2023/09/16 06:21:57;;;;;;;5.55;1.73;;;32.70;26.90;;;;;;5051542;28;20616;-70
2023/09/16 06:24:24;;;;;;;4.43;1.40;;;32.70;27.20;;;;;;5054698;28;20029;-69
2023/09/16 06:26:52;;;;;;;3.45;1.70;;;32.70;27.00;;;;;;5055952;28;20032;-69
2023/09/16 06:29:20;;;;;;;2.85;1.65;;;32.60;27.10;;;;;;5053738;28;20029;-70
2023/09/16 06:31:47;;;;;;;4.18;1.60;;;32.30;27.10;;;;;;5055332;28;20075;-69
2023/09/16 06:34:14;;;;;;;2.00;1.65;;;32.30;27.20;;;;;;5057159;28;20032;-70
2023/09/16 06:36:42;;;;;;;6.97;1.70;;;32.10;27.20;;;;;;5051107;28;20031;-70
2023/09/16 06:39:11;;;;;;;2.72;1.88;;;32.10;27.30;;;;;;5051993;28;20047;-70
2023/09/16 06:41:39;;;;;;;3.45;1.50;;;32.10;27.50;;;;;;5055078;28;20028;-70
2023/09/16 06:44:06;;;;;;;4.15;1.38;;;32.10;27.70;;;;;;5054367;28;20493;-70
2023/09/16 06:46:33;;;;;;;2.55;1.75;;;32.10;27.80;;;;;;5052304;28;20493;-70
2023/09/16 06:49:01;;;;;;;3.20;1.48;;;32.10;27.90;;;;;;5052473;28;20025;-69
2023/09/16 06:51:28;;;;;;;3.63;1.50;;;32.10;27.70;;;;;;5051796;28;20024;-70
2023/09/16 06:53:55;;;;;;;5.15;1.40;;;32.10;27.80;;;;;;5059751;28;20103;-69
2023/09/16 06:56:22;;;;;;;3.33;1.50;;;32.00;27.50;;;;;;5055564;28;20033;-70
2023/09/16 06:58:50;;;;;;;6.50;1.80;;;31.80;27.80;;;;;;5062356;28;20498;-70
2023/09/16 07:01:17;;;;;;;6.57;1.77;;;31.70;27.80;;;;;;5050002;28;20047;-70
2023/09/16 07:03:44;;;;;;;3.10;1.33;;;31.60;27.70;;;;;;5052170;28;20380;-70
2023/09/16 07:06:12;;;;;;;6.65;1.73;;;31.50;27.70;;;;;;5047406;28;20048;-70
2023/09/16 07:08:39;;;;;;;4.15;1.80;;;31.30;27.60;;;;;;5038283;28;20033;-70
2023/09/16 07:11:06;;;;;;;2.25;1.75;;;31.20;27.50;;;;;;5037925;28;20516;-70
2023/09/16 07:13:34;;;;;;;2.80;1.83;;;31.10;27.60;;;;;;5047498;28;20037;-70
2023/09/16 07:16:02;;;;;;;5.05;1.55;;;30.90;27.50;;;;;;5058754;28;20029;-70
2023/09/16 07:18:30;;;;;;;4.32;1.50;;;30.90;28.00;;;;;;5064463;28;20128;-70
2023/09/16 07:20:57;;;;;;;6.90;2.00;;;30.80;28.10;;;;;;5049990;28;20062;-70
2023/09/16 07:23:25;;;;;;;4.90;1.60;;;30.60;28.00;;;;;;5057723;28;20052;-70
2023/09/16 07:26:00;;;;;;;3.78;1.70;;;30.50;28.10;;;;;;5064385;28;20074;-71
2023/09/16 07:28:28;;;;;;;3.55;2.55;;;30.40;28.10;;;;;;5056221;28;20584;-72
2023/09/16 07:30:56;;;;;;;5.22;2.25;;;30.40;28.20;;;;;;5048483;28;22186;-69
2023/09/16 07:33:24;;;;;;;5.03;2.10;;;30.30;28.90;;;;;;5063935;28;20051;-70
2023/09/16 07:35:52;;;;;;;5.05;2.17;;;30.20;28.60;;;;;;5062668;28;20025;-70
2023/09/16 07:38:19;;;;;;;2.22;1.38;;;30.00;28.70;;;;;;5058600;28;20074;-70
2023/09/16 07:40:47;;;;;;;4.45;1.60;;;29.90;28.80;;;;;;5057948;28;20047;-69
2023/09/16 07:43:16;;;;;;;5.82;1.83;;;29.80;28.90;;;;;;5063501;28;20036;-71
2023/09/16 07:45:43;;;;;;;3.72;1.50;;;29.70;29.10;;;;;;5058764;28;20079;-71
2023/09/16 07:48:11;;;;;;;4.15;1.40;;;29.60;29.30;;;;;;5064900;28;20041;-71
2023/09/16 07:50:38;;;;;;;2.58;1.65;;;29.50;29.40;;;;;;5059218;28;20461;-70
2023/09/16 07:53:05;;;;;;;2.88;1.40;;;29.40;29.50;;;;;;5054667;28;20067;-71
2023/09/16 07:55:33;;;;;;;5.97;1.60;;;29.20;29.60;;;;;;5059760;28;20044;-70
2023/09/16 07:58:00;;;;;;;4.53;1.60;;;29.10;29.80;;;;;;5058926;28;20029;-70
2023/09/16 08:00:28;;;;;;;3.53;1.70;;;28.80;29.90;;;;;;5056109;28;20117;-70
2023/09/16 08:02:56;;;;;;;4.00;1.85;;;28.70;30.20;;;;;;5059191;28;20071;-70
2023/09/16 08:05:24;;;;;;;5.35;1.98;;;28.50;30.40;;;;;;5059835;28;20097;-70
2023/09/16 08:07:51;;;;;;;5.45;1.70;;;28.30;30.50;;;;;;5060011;28;20043;-70
2023/09/16 08:10:18;;;;;;;4.28;2.00;;;28.20;30.70;;;;;;5057733;28;20025;-70
2023/09/16 08:12:46;;;;;;;2.85;1.58;;;28.00;30.80;;;;;;5058973;28;20025;-70
2023/09/16 08:15:13;;;;;;;5.20;1.98;;;27.90;30.90;;;;;;5055145;28;20119;-70
2023/09/16 08:17:40;;;;;;;6.70;2.10;;;27.70;31.20;;;;;;5057663;28;20462;-70
2023/09/16 08:20:09;;;;;;;146.27;31.95;;;27.60;32.50;;;;;;5052179;28;20151;-70
2023/09/16 08:22:37;;;;;;;70.55;19.70;;;27.40;33.30;;;;;;5049397;28;20895;-71
2023/09/16 08:25:05;;;;;;;28.85;8.85;;;27.10;33.90;;;;;;5054079;28;20499;-70
2023/09/16 08:27:32;;;;;;;14.55;5.93;;;27.00;34.50;;;;;;5056036;28;20406;-70
2023/09/16 08:30:00;;;;;;;13.45;3.63;;;26.80;34.90;;;;;;5055758;28;20021;-69
2023/09/16 08:32:28;;;;;;;7.80;3.38;;;26.70;34.60;;;;;;5062700;28;20028;-71
2023/09/16 08:34:58;;;;;;;4.85;2.85;;;26.50;35.20;;;;;;5060924;28;20465;-70
2023/09/16 08:37:26;;;;;;;6.13;2.58;;;26.30;35.70;;;;;;5054700;28;20033;-70
2023/09/16 08:39:53;;;;;;;5.20;2.33;;;26.10;36.00;;;;;;5057010;28;20049;-70
2023/09/16 08:42:37;;;;;;;3.75;2.00;;;25.90;37.20;;;;;;5053166;28;20528;-69
2023/09/16 08:45:07;;;;;;;2.80;2.00;;;25.80;35.50;;;;;;5055417;28;20050;-71
2023/09/16 08:47:55;;;;;;;3.80;2.10;;;25.80;35.20;;;;;;5055612;28;21036;-70
2023/09/16 08:50:24;;;;;;;4.00;1.63;;;25.70;35.00;;;;;;5050910;28;20048;-71
2023/09/16 08:52:56;;;;;;;3.08;2.20;;;25.70;36.50;;;;;;5046478;28;20444;-69
2023/09/16 08:55:23;;;;;;;4.25;1.98;;;25.70;35.70;;;;;;5051742;28;20074;-70
2023/09/16 08:57:58;;;;;;;5.78;2.20;;;25.60;35.50;;;;;;5047143;28;20037;-70
2023/09/16 09:00:26;;;;;;;5.65;1.95;;;25.40;36.00;;;;;;5058103;28;20017;-71
2023/09/16 09:02:54;;;;;;;3.13;2.30;;;25.30;36.80;;;;;;5048283;28;20563;-70
2023/09/16 09:05:25;;;;;;;9.73;2.63;;;25.10;37.50;;;;;;5060231;28;20028;-70
2023/09/16 09:07:53;;;;;;;4.18;2.40;;;25.00;36.70;;;;;;5065896;28;20891;-69
2023/09/16 09:10:21;;;;;;;4.00;2.45;;;24.90;39.20;;;;;;5050578;28;20029;-69
2023/09/16 09:12:49;;;;;;;3.92;2.42;;;24.70;38.50;;;;;;5062849;28;20032;-69
2023/09/16 09:15:17;;;;;;;5.50;2.50;;;24.60;38.20;;;;;;5053589;28;20024;-70
2023/09/16 09:17:59;;;;;;;5.78;2.90;;;24.50;39.50;;;;;;5060032;28;20424;-70
2023/09/16 09:20:27;;;;;;;4.43;2.65;;;24.40;39.30;;;;;;5057447;28;20098;-69
2023/09/16 09:22:56;;;;;;;5.07;2.60;;;24.20;40.00;;;;;;5059232;28;20040;-71
2023/09/16 09:25:25;;;;;;;5.85;2.80;;;24.10;41.00;;;;;;5058359;28;20039;-70
2023/09/16 09:27:55;;;;;;;10.82;3.67;;;24.00;41.10;;;;;;5053377;28;20090;-70
2023/09/16 09:30:29;;;;;;;11.50;3.63;;;23.90;41.00;;;;;;5053651;28;20500;-70
2023/09/16 09:32:59;;;;;;;;;;;23.80;41.60;;;;;;5051934;28;20062;-69
2023/09/16 09:35:29;;;;;;;10.32;4.80;;;23.60;41.00;;;;;;5066737;28;19913;-70
2023/09/16 09:37:57;;;;;;;8.77;4.50;;;23.40;41.40;;;;;;5053866;28;20037;-70
2023/09/16 09:40:26;;;;;;;14.75;4.50;;;23.40;44.20;;;;;;5058258;28;20221;-69
2023/09/16 09:42:57;;;;;;;8.52;4.03;;;23.30;44.60;;;;;;5055017;28;20028;-69
2023/09/16 09:45:26;;;;;;;20.00;5.55;;;23.30;42.80;;;;;;5055335;28;20033;-68
2023/09/16 09:47:54;;;;;;;12.32;5.53;;;23.20;44.00;;;;;;5053979;28;20032;-69
2023/09/16 09:50:23;;;;;;;11.25;5.68;;;23.20;46.30;;;;;;5057053;28;20029;-69
2023/09/16 09:52:55;;;;;;;10.98;5.30;;;23.10;44.00;;;;;;5054360;28;20031;-70
2023/09/16 09:55:28;;;;;;;10.90;5.40;;;23.10;44.70;;;;;;5057408;28;20028;-69
2023/09/16 09:57:56;;;;;;;14.02;5.95;;;23.00;45.70;;;;;;5057083;28;20048;-69
2023/09/16 10:00:24;;;;;;;12.50;6.00;;;22.90;44.80;;;;;;5052608;28;20025;-69
2023/09/16 10:02:52;;;;;;;14.32;6.15;;;22.80;49.80;;;;;;5052229;28;20033;-69
2023/09/16 10:05:21;;;;;;;13.10;6.00;;;22.70;49.50;;;;;;5059522;28;20025;-69
2023/09/16 10:07:50;;;;;;;10.23;4.88;;;22.60;49.50;;;;;;5055801;28;20074;-68
2023/09/16 10:10:21;;;;;;;8.07;5.20;;;22.50;49.40;;;;;;5048239;28;20036;-69
2023/09/16 10:12:53;;;;;;;11.48;7.22;;;22.40;47.00;;;;;;5051028;28;20087;-70
2023/09/16 10:15:33;;;;;;;42.85;24.55;;;22.40;44.90;;;;;;5069928;28;20416;-69
2023/09/16 10:18:00;;;;;;;27.45;15.95;;;22.40;42.50;;;;;;5056332;28;20044;-69
2023/09/16 10:20:34;;;;;;;35.33;20.13;;;22.50;46.10;;;;;;5058445;28;20119;-69
2023/09/16 10:23:01;;;;;;;36.00;17.95;;;22.30;46.60;;;;;;5051688;28;20045;-68
2023/09/16 10:25:30;;;;;;;36.45;19.17;;;22.30;47.20;;;;;;5050500;28;20029;-69
2023/09/16 10:28:01;;;;;;;42.45;21.38;;;22.20;46.70;;;;;;5053669;28;20055;-69
2023/09/16 10:30:32;;;;;;;29.50;17.05;;;22.20;45.90;;;;;;5053851;28;20021;-69
2023/09/16 10:33:01;;;;;;;28.40;15.43;;;22.10;47.40;;;;;;5060885;28;20029;-69
2023/09/16 10:35:29;;;;;;;25.40;14.57;;;22.10;47.90;;;;;;5062592;28;20035;-69
2023/09/16 10:37:59;;;;;;;19.92;9.73;;;21.90;47.20;;;;;;5060119;28;20484;-69
2023/09/16 10:40:27;;;;;;;19.02;9.10;;;21.80;44.70;;;;;;5056348;28;20328;-69
2023/09/16 10:42:56;;;;;;;18.50;9.43;;;21.90;44.00;;;;;;5049433;28;20493;-71
2023/09/16 10:45:25;;;;;;;9.00;5.45;;;21.80;45.70;;;;;;5054111;28;20057;-69
2023/09/16 10:47:53;;;;;;;10.05;4.72;;;21.80;42.70;;;;;;5048146;28;20532;-68
2023/09/16 10:50:37;;;;;;;8.45;4.60;;;21.90;43.20;;;;;;5047536;28;20035;-69
2023/09/16 10:53:12;;;;;;;9.35;4.85;;;21.80;42.90;;;;;;5046078;28;20030;-69
2023/09/16 10:55:51;;;;;;;5.43;3.20;;;21.70;45.30;;;;;;5052943;28;20124;-68
2023/09/16 10:58:36;;;;;;;12.52;3.55;;;21.60;43.10;;;;;;5058111;28;20064;-69
2023/09/16 11:01:08;;;;;;;7.22;4.07;;;21.70;44.40;;;;;;5053402;28;20047;-69
2023/09/16 11:03:42;;;;;;;11.00;3.20;;;21.60;44.20;;;;;;5058277;28;20016;-69
2023/09/16 11:06:11;;;;;;;8.77;3.80;;;21.50;45.40;;;;;;5054301;28;20052;-71
2023/09/16 11:08:38;;;;;;;16.23;5.20;;;21.50;45.40;;;;;;5060953;28;20031;-69
2023/09/16 11:11:06;;;;;;;6.07;4.15;;;21.40;46.40;;;;;;5056739;28;20033;-68
2023/09/16 11:13:33;;;;;;;9.85;3.97;;;21.20;47.40;;;;;;5055031;28;20402;-69
2023/09/16 11:16:02;;;;;;;8.05;5.00;;;21.20;45.30;;;;;;5064163;28;20035;-70
2023/09/16 11:18:39;;;;;;;7.63;3.83;;;21.10;47.20;;;;;;5055551;28;20043;-69
2023/09/16 11:21:06;;;;;;;7.82;3.75;;;21.00;48.10;;;;;;5058256;28;20113;-69
2023/09/16 11:23:34;;;;;;;8.88;4.07;;;20.90;46.30;;;;;;5059417;28;20088;-68
2023/09/16 11:26:04;;;;;;;8.63;4.00;;;20.90;44.60;;;;;;5057491;28;20033;-69
2023/09/16 11:28:32;;;;;;;7.75;4.07;;;20.90;45.60;;;;;;5060826;28;20485;-69
2023/09/16 11:31:02;;;;;;;8.93;4.85;;;20.80;46.40;;;;;;5051683;28;20063;-68
2023/09/16 11:33:40;;;;;;;8.07;4.57;;;20.90;44.60;;;;;;5055953;28;20021;-69
2023/09/16 11:36:14;;;;;;;10.48;4.38;;;20.90;44.10;;;;;;5058990;28;20020;-68
2023/09/16 11:39:15;;;;;;;8.18;4.68;;;20.90;43.70;;;;;;5059726;28;20028;-71
2023/09/16 11:41:42;;;;;;;7.47;4.28;;;20.90;43.90;;;;;;5055470;28;20109;-69
2023/09/16 11:44:10;;;;;;;9.38;4.60;;;20.90;44.00;;;;;;5056120;28;20072;-70
2023/09/16 11:46:38;;;;;;;9.73;4.72;;;20.80;45.20;;;;;;5061006;28;20108;-70
2023/09/16 11:49:06;;;;;;;10.48;4.53;;;20.80;43.90;;;;;;5057073;28;20032;-69
2023/09/16 11:51:38;;;;;;;8.07;3.97;;;20.80;45.30;;;;;;5056759;28;20029;-69
2023/09/16 11:54:06;;;;;;;7.63;3.50;;;20.80;44.70;;;;;;5058557;28;20031;-70
2023/09/16 11:56:35;;;;;;;11.10;3.75;;;20.80;44.00;;;;;;5054283;28;20044;-70
2023/09/16 11:59:04;;;;;;;5.72;3.38;;;20.80;43.80;;;;;;5059946;28;20261;-70
2023/09/16 12:01:36;;;;;;;5.88;3.20;;;20.90;43.20;;;;;;5049817;28;20036;-69
2023/09/16 12:04:06;;;;;;;8.50;3.13;;;21.20;42.40;;;;;;5052109;28;20029;-70
2023/09/16 12:06:35;;;;;;;9.23;4.03;;;21.20;42.40;;;;;;5056035;28;20406;-70
2023/09/16 12:09:04;;;;;;;4.35;2.85;;;21.10;43.20;;;;;;5047933;28;20112;-69
2023/09/16 12:11:33;;;;;;;5.88;3.20;;;21.10;43.00;;;;;;5055454;28;20323;-68
2023/09/16 12:14:03;;;;;;;4.00;2.85;;;21.10;42.70;;;;;;5062903;28;20029;-69
2023/09/16 12:16:30;;;;;;;5.70;3.28;;;21.00;43.10;;;;;;5062447;28;20086;-69
2023/09/16 12:18:58;;;;;;;7.30;3.00;;;20.90;43.40;;;;;;5056065;28;20433;-69
2023/09/16 12:21:25;;;;;;;6.22;3.22;;;20.80;44.10;;;;;;5062106;28;20386;-68
2023/09/16 12:23:56;;;;;;;5.45;3.25;;;20.70;44.40;;;;;;5054788;28;20053;-68
2023/09/16 12:26:26;;;;;;;4.97;2.80;;;20.60;45.40;;;;;;5049393;28;20043;-69
2023/09/16 12:29:01;;;;;;;7.88;3.70;;;20.50;46.30;;;;;;5051566;28;20021;-70
2023/09/16 12:31:28;;;;;;;4.70;3.35;;;20.30;47.40;;;;;;5046273;28;20230;-70
2023/09/16 12:33:57;;;;;;;12.20;3.25;;;20.20;47.80;;;;;;5050452;28;20116;-69
2023/09/16 12:36:34;;;;;;;7.80;3.58;;;20.20;47.80;;;;;;5054363;28;20535;-68
2023/09/16 12:39:07;;;;;;;6.10;3.22;;;20.00;47.80;;;;;;5047613;28;20060;-68
2023/09/16 12:41:43;;;;;;;6.82;3.78;;;19.90;48.30;;;;;;5046188;28;20033;-69
2023/09/16 12:44:16;;;;;;;7.95;3.45;;;19.80;49.00;;;;;;5055426;28;20032;-68
2023/09/16 12:46:46;;;;;;;8.57;4.28;;;19.90;49.60;;;;;;5034059;28;20029;-68
2023/09/16 12:49:14;;;;;;;8.20;4.00;;;19.70;50.10;;;;;;5060764;28;20436;-69
2023/09/16 12:51:41;;;;;;;10.10;4.35;;;19.70;50.30;;;;;;5059777;28;21301;-68
2023/09/16 12:54:09;;;;;;;8.10;4.25;;;19.30;50.20;;;;;;5056368;28;20132;-68